createdAt,value
2024-02-14T00:00:56.938Z,100.00
2024-02-14T00:03:25.143Z,100.00
2024-02-14T00:05:53.742Z,100.00
2024-02-14T00:08:22.431Z,100.00
2024-02-14T00:10:49.964Z,100.00
2024-02-14T00:13:19.625Z,100.00
2024-02-14T00:15:47.597Z,100.00
2024-02-14T00:18:17.824Z,100.00
2024-02-14T00:20:45.294Z,100.00
2024-02-14T00:23:12.746Z,100.00
2024-02-14T00:25:39.585Z,100.00
2024-02-14T00:28:07.262Z,100.00
2024-02-14T00:30:35.663Z,100.00
2024-02-14T00:33:03.360Z,100.00
2024-02-14T00:35:31.153Z,100.00
2024-02-14T00:37:58.527Z,100.00
2024-02-14T00:40:25.876Z,100.00
2024-02-14T00:42:52.761Z,100.00
2024-02-14T00:45:20.002Z,100.00
2024-02-14T00:47:47.330Z,100.00
2024-02-14T00:50:19.696Z,100.00
2024-02-14T00:52:46.833Z,100.00
2024-02-14T00:55:15.275Z,100.00
2024-02-14T00:57:42.072Z,100.00
2024-02-14T01:00:10.258Z,100.00
2024-02-14T01:02:37.215Z,100.00
2024-02-14T01:05:06.670Z,100.00
2024-02-14T01:07:34.095Z,100.00
2024-02-14T01:10:01.572Z,100.00
2024-02-14T01:12:30.857Z,100.00
2024-02-14T01:14:57.986Z,100.00
2024-02-14T01:17:26.254Z,100.00
2024-02-14T01:19:55.523Z,100.00
2024-02-14T01:22:23.003Z,100.00
2024-02-14T01:24:49.764Z,100.00
2024-02-14T01:27:18.166Z,100.00
2024-02-14T01:29:46.820Z,100.00
2024-02-14T01:32:13.739Z,100.00
2024-02-14T01:34:40.716Z,100.00
2024-02-14T01:37:11.144Z,100.00
2024-02-14T01:39:38.150Z,100.00
2024-02-14T01:42:08.004Z,100.00
2024-02-14T01:44:35.982Z,100.00
2024-02-14T01:47:03.423Z,100.00
2024-02-14T01:49:32.445Z,100.00
2024-02-14T01:52:04.064Z,100.00
2024-02-14T01:54:32.828Z,100.00
2024-02-14T01:57:02.541Z,100.00
2024-02-14T01:59:29.921Z,100.00
2024-02-14T02:01:59.418Z,100.00
2024-02-14T02:04:26.575Z,100.00
2024-02-14T02:06:57.876Z,100.00
2024-02-14T02:09:28.066Z,100.00
2024-02-14T02:11:55.337Z,100.00
2024-02-14T02:14:25.540Z,100.00
2024-02-14T02:16:53.410Z,100.00
2024-02-14T02:19:20.646Z,100.00
2024-02-14T02:21:48.286Z,100.00
2024-02-14T02:24:15.657Z,100.00
2024-02-14T02:26:42.992Z,100.00
2024-02-14T02:29:10.463Z,100.00
2024-02-14T02:31:39.341Z,100.00
2024-02-14T02:34:07.523Z,100.00
2024-02-14T02:36:37.258Z,100.00
2024-02-14T02:39:04.562Z,100.00
2024-02-14T02:41:34.441Z,100.00
2024-02-14T02:44:02.947Z,100.00
2024-02-14T02:46:30.957Z,100.00
2024-02-14T02:49:00.020Z,100.00
2024-02-14T02:51:29.066Z,100.00
2024-02-14T02:53:56.249Z,100.00
2024-02-14T02:56:28.555Z,100.00
2024-02-14T02:58:56.893Z,100.00
2024-02-14T03:01:26.236Z,100.00
2024-02-14T03:03:54.767Z,100.00
2024-02-14T03:06:25.357Z,100.00
2024-02-14T03:08:55.065Z,100.00
2024-02-14T03:11:23.759Z,100.00
2024-02-14T03:13:50.892Z,100.00
2024-02-14T03:16:18.672Z,100.00
2024-02-14T03:18:46.195Z,100.00
2024-02-14T03:21:13.754Z,100.00
2024-02-14T03:23:41.421Z,100.00
2024-02-14T03:26:10.237Z,100.00
2024-02-14T03:28:37.643Z,100.00
2024-02-14T03:31:05.237Z,100.00
2024-02-14T03:33:33.588Z,100.00
2024-02-14T03:36:01.021Z,100.00
2024-02-14T03:38:29.334Z,100.00
2024-02-14T03:40:56.588Z,100.00
2024-02-14T03:43:25.160Z,100.00
2024-02-14T03:45:53.415Z,100.00
2024-02-14T03:48:21.567Z,100.00
2024-02-14T03:50:49.591Z,100.00
2024-02-14T03:53:18.936Z,100.00
2024-02-14T03:55:47.350Z,100.00
2024-02-14T03:58:17.338Z,100.00
2024-02-14T04:00:45.775Z,100.00
2024-02-14T04:03:15.451Z,100.00
2024-02-14T04:05:42.916Z,100.00
2024-02-14T04:08:12.060Z,100.00
2024-02-14T04:10:41.217Z,100.00
2024-02-14T04:13:08.331Z,100.00
2024-02-14T04:15:35.594Z,100.00
2024-02-14T04:18:07.280Z,100.00
2024-02-14T04:20:37.517Z,100.00
2024-02-14T04:23:07.904Z,100.00
2024-02-14T04:25:35.237Z,100.00
2024-02-14T04:28:04.126Z,100.00
2024-02-14T04:30:32.373Z,100.00
2024-02-14T04:33:02.722Z,100.00
2024-02-14T04:35:30.170Z,100.00
2024-02-14T04:37:58.155Z,100.00
2024-02-14T04:40:25.021Z,100.00
2024-02-14T04:42:52.054Z,100.00
2024-02-14T04:45:20.057Z,100.00
2024-02-14T04:47:47.419Z,100.00
2024-02-14T04:50:15.239Z,100.00
2024-02-14T04:52:42.463Z,100.00
2024-02-14T04:55:13.892Z,100.00
2024-02-14T04:57:40.827Z,100.00
2024-02-14T05:00:10.556Z,100.00
2024-02-14T05:02:38.838Z,100.00
2024-02-14T05:05:07.079Z,100.00
2024-02-14T05:07:36.361Z,100.00
2024-02-14T05:10:09.098Z,100.00
2024-02-14T05:12:36.375Z,100.00
2024-02-14T05:15:05.878Z,100.00
2024-02-14T05:17:33.038Z,100.00
2024-02-14T05:20:00.973Z,100.00
2024-02-14T05:22:28.890Z,100.00
2024-02-14T05:24:56.228Z,100.00
2024-02-14T05:27:23.695Z,100.00
2024-02-14T05:29:50.600Z,100.00
2024-02-14T05:32:18.159Z,100.00
2024-02-14T05:34:45.547Z,100.00
2024-02-14T05:37:13.562Z,100.00
2024-02-14T05:39:41.112Z,100.00
2024-02-14T05:42:08.689Z,100.00
2024-02-14T05:44:35.882Z,100.00
2024-02-14T05:47:02.738Z,100.00
2024-02-14T05:49:31.920Z,100.00
2024-02-14T05:51:59.326Z,100.00
2024-02-14T05:54:26.922Z,100.00
2024-02-14T05:56:54.128Z,100.00
2024-02-14T05:59:21.005Z,100.00
2024-02-14T06:01:49.183Z,100.00
2024-02-14T06:04:19.753Z,100.00
2024-02-14T06:06:46.705Z,100.00
2024-02-14T06:09:15.114Z,100.00
2024-02-14T06:11:43.625Z,100.00
2024-02-14T06:14:15.687Z,100.00
2024-02-14T06:16:42.558Z,100.00
2024-02-14T06:19:10.955Z,100.00
2024-02-14T06:21:38.020Z,100.00
2024-02-14T06:24:05.308Z,100.00
2024-02-14T06:26:34.616Z,100.00
2024-02-14T06:29:01.950Z,100.00
2024-02-14T06:31:28.878Z,100.00
2024-02-14T06:33:58.068Z,100.00
2024-02-14T06:36:25.361Z,100.00
2024-02-14T06:38:52.990Z,100.00
2024-02-14T06:41:21.366Z,100.00
2024-02-14T06:43:50.538Z,100.00
2024-02-14T06:46:17.915Z,100.00
2024-02-14T06:48:45.589Z,100.00
2024-02-14T06:51:12.663Z,100.00
2024-02-14T06:53:42.147Z,100.00
2024-02-14T06:56:09.192Z,100.00
2024-02-14T06:58:36.319Z,100.00
2024-02-14T07:01:04.566Z,100.00
2024-02-14T07:03:31.501Z,100.00
2024-02-14T07:06:04.713Z,100.00
2024-02-14T07:08:31.513Z,100.00
2024-02-14T07:11:00.792Z,100.00
2024-02-14T07:13:27.567Z,100.00
2024-02-14T07:15:56.643Z,100.00
2024-02-14T07:18:25.834Z,100.00
2024-02-14T07:20:53.599Z,100.00
2024-02-14T07:23:21.592Z,100.00
2024-02-14T07:25:50.121Z,100.00
2024-02-14T07:28:16.988Z,100.00
2024-02-14T07:30:45.143Z,100.00
2024-02-14T07:33:12.510Z,100.00
2024-02-14T07:35:40.061Z,100.00
2024-02-14T07:38:07.320Z,100.00
2024-02-14T07:40:34.759Z,100.00
2024-02-14T07:43:07.369Z,100.00
2024-02-14T07:45:34.759Z,100.00
2024-02-14T07:48:04.514Z,100.00
2024-02-14T07:50:34.113Z,100.00
2024-02-14T07:53:03.311Z,100.00
2024-02-14T07:55:31.350Z,100.00
2024-02-14T07:58:00.927Z,100.00
2024-02-14T08:00:28.341Z,100.00
2024-02-14T08:02:55.230Z,100.00
2024-02-14T08:05:22.295Z,100.00
2024-02-14T08:07:49.640Z,100.00
2024-02-14T08:10:18.052Z,100.00
2024-02-14T08:12:45.077Z,100.00
2024-02-14T08:15:11.973Z,100.00
2024-02-14T08:17:39.037Z,100.00
2024-02-14T08:20:11.654Z,100.00
2024-02-14T08:22:40.637Z,100.00
2024-02-14T08:25:08.291Z,100.00
2024-02-14T08:27:35.512Z,100.00
2024-02-14T08:30:02.914Z,100.00
2024-02-14T08:32:29.844Z,100.00
2024-02-14T08:34:56.813Z,100.00
2024-02-14T08:37:26.126Z,100.00
2024-02-14T08:39:53.161Z,100.00
2024-02-14T08:42:20.323Z,100.00
2024-02-14T08:44:47.590Z,100.00
2024-02-14T08:47:15.637Z,100.00
2024-02-14T08:49:43.443Z,100.00
2024-02-14T08:52:12.596Z,100.00
2024-02-14T08:54:41.981Z,100.00
2024-02-14T08:57:10.081Z,100.00
2024-02-14T08:59:37.047Z,100.00
2024-02-14T09:02:04.645Z,100.00
2024-02-14T09:04:40.467Z,100.00
2024-02-14T09:07:11.085Z,100.00
2024-02-14T09:09:39.070Z,100.00
2024-02-14T09:12:07.327Z,100.00
2024-02-14T09:14:34.644Z,100.00
2024-02-14T09:17:02.275Z,99.29
2024-02-14T09:19:31.512Z,94.21
2024-02-14T09:21:59.028Z,89.02
2024-02-14T09:24:26.399Z,84.71
2024-02-14T09:26:53.857Z,81.98
2024-02-14T09:29:23.447Z,82.97
2024-02-14T09:31:52.757Z,83.09
2024-02-14T09:34:21.789Z,80.92
2024-02-14T09:36:53.359Z,79.19
2024-02-14T09:39:21.555Z,81.61
2024-02-14T09:41:55.657Z,81.59
2024-02-14T09:44:25.012Z,82.48
2024-02-14T09:46:52.064Z,80.46
2024-02-14T09:49:20.871Z,78.03
2024-02-14T09:51:50.298Z,76.45
2024-02-14T09:54:19.450Z,75.50
2024-02-14T09:56:58.780Z,72.36
2024-02-14T09:59:26.418Z,72.24
2024-02-14T10:01:53.798Z,72.90
2024-02-14T10:04:26.820Z,74.95
2024-02-14T10:06:57.348Z,76.86
2024-02-14T10:09:26.941Z,76.23
2024-02-14T10:11:55.686Z,74.64
2024-02-14T10:14:24.800Z,72.07
2024-02-14T10:16:51.655Z,70.89
2024-02-14T10:19:19.974Z,70.54
2024-02-14T10:22:00.474Z,73.33
2024-02-14T10:24:28.844Z,73.79
2024-02-14T10:26:59.172Z,73.21
2024-02-14T10:29:27.157Z,72.26
2024-02-14T10:31:54.961Z,71.16
2024-02-14T10:34:26.777Z,65.42
2024-02-14T10:37:01.733Z,63.52
2024-02-14T10:39:32.639Z,60.39
2024-02-14T10:42:01.399Z,56.08
2024-02-14T10:44:28.632Z,54.78
2024-02-14T10:46:58.268Z,55.30
2024-02-14T10:49:29.940Z,56.46
2024-02-14T10:52:01.974Z,54.21
2024-02-14T10:54:29.998Z,53.63
2024-02-14T10:56:59.785Z,51.59
2024-02-14T10:59:28.853Z,51.57
2024-02-14T11:01:58.513Z,52.18
2024-02-14T11:04:32.196Z,48.00
2024-02-14T11:07:04.041Z,47.54
2024-02-14T11:09:39.480Z,46.30
2024-02-14T11:12:11.917Z,45.68
2024-02-14T11:14:42.242Z,45.51
2024-02-14T11:17:14.349Z,45.14
2024-02-14T11:19:43.399Z,45.46
2024-02-14T11:22:21.060Z,46.37
2024-02-14T11:24:48.409Z,46.15
2024-02-14T11:27:29.804Z,44.37
2024-02-14T11:30:02.633Z,46.20
2024-02-14T11:32:32.233Z,43.33
2024-02-14T11:35:00.240Z,42.64
2024-02-14T11:37:32.856Z,41.52
2024-02-14T11:40:00.496Z,41.91
2024-02-14T11:42:28.717Z,43.11
2024-02-14T11:44:58.730Z,43.34
2024-02-14T11:47:26.328Z,42.90
2024-02-14T11:49:53.996Z,40.90
2024-02-14T11:52:20.903Z,39.55
2024-02-14T11:54:51.560Z,42.16
2024-02-14T11:57:22.710Z,43.33
2024-02-14T11:59:54.914Z,44.18
2024-02-14T12:02:22.790Z,44.30
2024-02-14T12:04:55.385Z,43.12
2024-02-14T12:07:23.732Z,42.06
2024-02-14T12:09:56.630Z,43.09
2024-02-14T12:12:24.407Z,44.44
2024-02-14T12:14:54.325Z,45.15
2024-02-14T12:17:22.305Z,46.00
2024-02-14T12:19:53.392Z,48.13
2024-02-14T12:22:23.053Z,49.53
2024-02-14T12:24:50.895Z,50.43
2024-02-14T12:27:21.341Z,49.98
2024-02-14T12:29:49.945Z,51.66
2024-02-14T12:32:18.795Z,51.48
2024-02-14T12:34:45.981Z,51.12
2024-02-14T12:37:13.375Z,53.26
2024-02-14T12:39:41.924Z,53.97
2024-02-14T12:42:09.687Z,53.49
2024-02-14T12:44:37.865Z,53.45
2024-02-14T12:47:06.221Z,53.12
2024-02-14T12:49:36.321Z,54.62
2024-02-14T12:52:06.229Z,55.47
2024-02-14T12:54:33.748Z,56.53
2024-02-14T12:57:01.327Z,56.20
2024-02-14T12:59:28.690Z,56.66
2024-02-14T13:01:57.194Z,56.63
2024-02-14T13:04:24.356Z,55.89
2024-02-14T13:06:51.655Z,55.56
2024-02-14T13:09:19.103Z,56.38
2024-02-14T13:11:46.636Z,56.09
2024-02-14T13:14:14.084Z,57.20
2024-02-14T13:16:41.938Z,57.43
2024-02-14T13:19:09.441Z,56.96
2024-02-14T13:21:39.386Z,57.30
2024-02-14T13:24:06.969Z,56.46
2024-02-14T13:26:35.587Z,56.50
2024-02-14T13:29:02.801Z,55.90
2024-02-14T13:31:30.149Z,55.84
2024-02-14T13:33:58.309Z,55.36
2024-02-14T13:36:25.638Z,54.64
2024-02-14T13:38:53.556Z,55.17
2024-02-14T13:41:21.669Z,57.04
2024-02-14T13:43:49.205Z,56.33
2024-02-14T13:46:16.442Z,56.16
2024-02-14T13:48:45.514Z,56.46
2024-02-14T13:51:13.123Z,55.94
2024-02-14T13:53:40.461Z,55.71
2024-02-14T13:56:08.206Z,55.98
2024-02-14T13:58:36.488Z,59.01
2024-02-14T14:01:08.448Z,57.10
2024-02-14T14:03:37.924Z,57.40
2024-02-14T14:06:09.421Z,56.94
2024-02-14T14:08:37.538Z,56.58
2024-02-14T14:11:05.113Z,54.84
2024-02-14T14:13:34.799Z,54.61
2024-02-14T14:16:02.749Z,55.13
2024-02-14T14:18:30.874Z,55.16
2024-02-14T14:20:57.958Z,55.54
2024-02-14T14:23:26.398Z,56.66
2024-02-14T14:25:53.710Z,58.50
2024-02-14T14:28:25.840Z,59.06
2024-02-14T14:30:53.636Z,59.12
2024-02-14T14:33:22.625Z,56.53
2024-02-14T14:35:56.259Z,55.59
2024-02-14T14:38:27.712Z,54.35
2024-02-14T14:40:57.098Z,55.37
2024-02-14T14:43:25.044Z,54.91
2024-02-14T14:45:54.462Z,55.23
2024-02-14T14:48:24.148Z,56.07
2024-02-14T14:50:51.410Z,55.26
2024-02-14T14:53:21.358Z,52.33
2024-02-14T14:55:57.605Z,51.78
2024-02-14T14:58:28.842Z,51.78
2024-02-14T15:01:00.224Z,52.06
2024-02-14T15:03:28.097Z,53.30
2024-02-14T15:05:55.623Z,54.40
2024-02-14T15:08:27.049Z,56.17
2024-02-14T15:10:56.742Z,56.93
2024-02-14T15:13:25.412Z,58.10
2024-02-14T15:15:54.322Z,59.36
2024-02-14T15:18:21.654Z,60.33
2024-02-14T15:20:48.928Z,61.34
2024-02-14T15:23:16.006Z,61.84
2024-02-14T15:25:42.969Z,62.51
2024-02-14T15:28:15.506Z,63.26
2024-02-14T15:30:59.908Z,64.14
2024-02-14T15:33:30.438Z,65.23
2024-02-14T15:36:00.774Z,65.76
2024-02-14T15:38:28.233Z,66.05
2024-02-14T15:41:02.626Z,66.56
2024-02-14T15:43:30.447Z,67.40
2024-02-14T15:45:58.750Z,68.01
2024-02-14T15:48:28.876Z,68.56
2024-02-14T15:50:58.548Z,68.95
2024-02-14T15:53:28.138Z,69.62
2024-02-14T15:55:56.576Z,70.45
2024-02-14T15:58:23.515Z,70.77
2024-02-14T16:00:50.421Z,71.11
2024-02-14T16:03:17.277Z,72.04
2024-02-14T16:05:47.424Z,73.14
2024-02-14T16:08:17.827Z,73.97
2024-02-14T16:10:45.784Z,74.45
2024-02-14T16:13:13.637Z,75.00
2024-02-14T16:15:40.485Z,76.21
2024-02-14T16:18:07.515Z,76.76
2024-02-14T16:20:34.426Z,77.36
2024-02-14T16:23:01.945Z,77.22
2024-02-14T16:25:31.960Z,77.17
2024-02-14T16:28:00.410Z,76.72
2024-02-14T16:30:27.422Z,76.96
2024-02-14T16:32:54.769Z,77.66
2024-02-14T16:35:22.881Z,78.67
2024-02-14T16:37:49.901Z,79.40
2024-02-14T16:40:16.802Z,79.76
2024-02-14T16:42:44.201Z,80.00
2024-02-14T16:45:11.480Z,80.67
2024-02-14T16:47:42.477Z,81.22
2024-02-14T16:50:09.643Z,81.79
2024-02-14T16:52:36.952Z,82.05
2024-02-14T16:55:04.790Z,83.24
2024-02-14T16:57:32.914Z,82.91
2024-02-14T16:59:59.744Z,82.37
2024-02-14T17:02:26.827Z,83.30
2024-02-14T17:04:54.035Z,83.06
2024-02-14T17:07:20.963Z,82.76
2024-02-14T17:09:48.384Z,82.99
2024-02-14T17:12:17.236Z,83.29
2024-02-14T17:14:47.989Z,83.38
2024-02-14T17:17:15.446Z,84.63
2024-02-14T17:19:42.475Z,85.00
2024-02-14T17:22:17.868Z,84.90
2024-02-14T17:24:56.945Z,85.25
2024-02-14T17:27:24.977Z,85.53
2024-02-14T17:29:53.357Z,85.83
2024-02-14T17:32:31.892Z,86.61
2024-02-14T17:35:04.914Z,87.62
2024-02-14T17:37:34.983Z,87.58
2024-02-14T17:40:03.037Z,87.23
2024-02-14T17:42:30.431Z,88.22
2024-02-14T17:44:58.774Z,89.27
2024-02-14T17:47:32.276Z,89.51
2024-02-14T17:49:59.823Z,89.14
2024-02-14T17:52:26.915Z,89.31
2024-02-14T17:54:56.155Z,91.69
2024-02-14T17:57:27.332Z,92.17
2024-02-14T17:59:55.459Z,92.50
2024-02-14T18:02:23.593Z,93.07
2024-02-14T18:04:52.162Z,93.20
2024-02-14T18:07:19.635Z,94.42
2024-02-14T18:09:46.626Z,95.68
2024-02-14T18:12:14.770Z,96.99
2024-02-14T18:14:42.009Z,98.12
2024-02-14T18:17:09.931Z,98.65
2024-02-14T18:19:37.142Z,97.01
2024-02-14T18:22:04.482Z,96.61
2024-02-14T18:24:32.459Z,98.46
2024-02-14T18:27:01.526Z,99.86
2024-02-14T18:29:30.389Z,100.00
2024-02-14T18:31:57.539Z,100.00
2024-02-14T18:34:24.814Z,100.00
2024-02-14T18:36:55.107Z,100.00
2024-02-14T18:39:22.848Z,100.00
2024-02-14T18:41:50.011Z,100.00
2024-02-14T18:44:16.890Z,100.00
2024-02-14T18:46:47.399Z,100.00
2024-02-14T18:49:17.493Z,99.80
2024-02-14T18:51:44.980Z,97.71
2024-02-14T18:54:12.209Z,98.07
2024-02-14T18:56:42.083Z,97.99
2024-02-14T18:59:10.412Z,98.08
2024-02-14T19:01:39.495Z,98.31
2024-02-14T19:04:07.285Z,98.19
2024-02-14T19:06:36.263Z,96.25
2024-02-14T19:09:06.000Z,96.73
2024-02-14T19:11:33.208Z,97.80
2024-02-14T19:14:00.393Z,96.11
2024-02-14T19:16:29.374Z,95.68
2024-02-14T19:18:58.151Z,97.01
2024-02-14T19:21:25.877Z,98.11
2024-02-14T19:23:53.254Z,98.50
2024-02-14T19:26:22.643Z,98.25
2024-02-14T19:28:51.090Z,100.00
2024-02-14T19:31:18.514Z,100.00
2024-02-14T19:33:47.432Z,100.00
2024-02-14T19:36:15.055Z,100.00
2024-02-14T19:38:41.988Z,100.00
2024-02-14T19:41:09.613Z,100.00
2024-02-14T19:43:40.105Z,100.00
2024-02-14T19:46:12.110Z,100.00
2024-02-14T19:48:39.684Z,100.00
2024-02-14T19:51:07.333Z,100.00
2024-02-14T19:53:36.332Z,100.00
2024-02-14T19:56:04.924Z,100.00
2024-02-14T19:58:33.968Z,100.00
2024-02-14T20:01:00.873Z,100.00
2024-02-14T20:03:28.406Z,100.00
2024-02-14T20:05:55.696Z,100.00
2024-02-14T20:08:26.567Z,100.00
2024-02-14T20:10:56.994Z,100.00
2024-02-14T20:13:24.791Z,100.00
2024-02-14T20:15:53.092Z,100.00
2024-02-14T20:18:20.647Z,100.00
2024-02-14T20:20:52.347Z,100.00
2024-02-14T20:23:19.920Z,100.00
2024-02-14T20:25:48.627Z,100.00
2024-02-14T20:28:15.931Z,100.00
2024-02-14T20:30:43.501Z,100.00
2024-02-14T20:33:12.386Z,100.00
2024-02-14T20:35:39.705Z,100.00
2024-02-14T20:38:11.037Z,100.00
2024-02-14T20:40:39.311Z,100.00
2024-02-14T20:43:07.224Z,100.00
2024-02-14T20:45:37.555Z,100.00
2024-02-14T20:48:05.943Z,100.00
2024-02-14T20:50:33.183Z,100.00
2024-02-14T20:53:00.663Z,100.00
2024-02-14T20:55:27.609Z,100.00
2024-02-14T20:57:55.490Z,100.00
2024-02-14T21:00:24.308Z,100.00
2024-02-14T21:02:51.676Z,100.00
2024-02-14T21:05:18.954Z,100.00
2024-02-14T21:07:46.789Z,100.00
2024-02-14T21:10:17.328Z,100.00
2024-02-14T21:12:44.783Z,100.00
2024-02-14T21:15:11.989Z,100.00
2024-02-14T21:17:39.406Z,100.00
2024-02-14T21:20:11.044Z,100.00
2024-02-14T21:22:38.866Z,100.00
2024-02-14T21:25:06.663Z,100.00
2024-02-14T21:27:36.372Z,100.00
2024-02-14T21:30:03.973Z,100.00
2024-02-14T21:32:33.263Z,100.00
2024-02-14T21:35:01.759Z,100.00
2024-02-14T21:37:28.533Z,100.00
2024-02-14T21:39:55.518Z,100.00
2024-02-14T21:42:22.464Z,100.00
2024-02-14T21:44:49.705Z,100.00
2024-02-14T21:47:17.352Z,100.00
2024-02-14T21:49:46.723Z,100.00
2024-02-14T21:52:13.881Z,100.00
2024-02-14T21:54:40.945Z,100.00
2024-02-14T21:57:08.480Z,100.00
2024-02-14T21:59:35.719Z,100.00
2024-02-14T22:02:06.942Z,100.00
2024-02-14T22:04:34.809Z,100.00
2024-02-14T22:07:03.102Z,100.00
2024-02-14T22:09:30.904Z,100.00
2024-02-14T22:11:59.526Z,100.00
2024-02-14T22:14:27.618Z,100.00
2024-02-14T22:16:59.460Z,100.00
2024-02-14T22:19:26.643Z,100.00
2024-02-14T22:21:55.986Z,100.00
2024-02-14T22:24:27.572Z,100.00
2024-02-14T22:26:55.801Z,100.00
2024-02-14T22:29:24.470Z,100.00
2024-02-14T22:31:53.818Z,100.00
2024-02-14T22:34:22.169Z,100.00
2024-02-14T22:36:49.600Z,100.00
2024-02-14T22:39:16.617Z,100.00
2024-02-14T22:41:44.285Z,100.00
2024-02-14T22:44:11.587Z,100.00
2024-02-14T22:46:40.213Z,100.00
2024-02-14T22:49:07.641Z,100.00
2024-02-14T22:51:38.621Z,100.00
2024-02-14T22:54:06.099Z,100.00
2024-02-14T22:56:33.398Z,100.00
2024-02-14T22:59:00.745Z,100.00
2024-02-14T23:01:28.091Z,100.00
2024-02-14T23:03:55.338Z,100.00
2024-02-14T23:06:23.041Z,100.00
2024-02-14T23:08:50.274Z,100.00
2024-02-14T23:11:19.250Z,100.00
2024-02-14T23:13:46.841Z,100.00
2024-02-14T23:16:14.089Z,100.00
2024-02-14T23:18:41.135Z,100.00
2024-02-14T23:21:08.654Z,100.00
2024-02-14T23:23:36.028Z,100.00
2024-02-14T23:26:03.570Z,100.00
2024-02-14T23:28:31.913Z,100.00
2024-02-14T23:30:58.852Z,100.00
2024-02-14T23:33:26.471Z,100.00
2024-02-14T23:35:53.817Z,100.00
2024-02-14T23:38:21.343Z,100.00
2024-02-14T23:40:50.602Z,100.00
2024-02-14T23:43:18.413Z,100.00
2024-02-14T23:45:45.948Z,100.00
2024-02-14T23:48:13.232Z,100.00
2024-02-14T23:50:41.837Z,100.00
2024-02-14T23:53:12.062Z,100.00
2024-02-14T23:55:41.333Z,100.00
2024-02-14T23:58:11.254Z,100.00
